sensor_id;sensor_type;location;lat;lon;timestamp;temperature;humidity
47857;DHT22;33618;49.972;8.242;2023-06-22T00:00:04;25.10;82.60
47857;DHT22;33618;49.972;8.242;2023-06-22T00:02:36;25.10;82.20
47857;DHT22;33618;49.972;8.242;2023-06-22T00:05:03;25.00;82.30
47857;DHT22;33618;49.972;8.242;2023-06-22T00:07:30;25.00;82.80
47857;DHT22;33618;49.972;8.242;2023-06-22T00:09:57;25.00;83.20
47857;DHT22;33618;49.972;8.242;2023-06-22T00:12:24;24.90;84.00
47857;DHT22;33618;49.972;8.242;2023-06-22T00:14:51;24.90;84.70
47857;DHT22;33618;49.972;8.242;2023-06-22T00:17:18;24.90;84.40
47857;DHT22;33618;49.972;8.242;2023-06-22T00:19:49;24.90;84.70
47857;DHT22;33618;49.972;8.242;2023-06-22T00:22:20;24.80;85.50
47857;DHT22;33618;49.972;8.242;2023-06-22T00:24:56;24.80;85.20
47857;DHT22;33618;49.972;8.242;2023-06-22T00:27:23;24.90;85.10
47857;DHT22;33618;49.972;8.242;2023-06-22T00:29:51;24.90;85.70
47857;DHT22;33618;49.972;8.242;2023-06-22T00:32:18;25.00;85.20
47857;DHT22;33618;49.972;8.242;2023-06-22T00:34:46;25.20;84.60
47857;DHT22;33618;49.972;8.242;2023-06-22T00:37:13;25.20;84.50
47857;DHT22;33618;49.972;8.242;2023-06-22T00:39:40;25.00;87.30
47857;DHT22;33618;49.972;8.242;2023-06-22T00:42:07;24.80;90.50
47857;DHT22;33618;49.972;8.242;2023-06-22T00:44:35;24.70;92.20
47857;DHT22;33618;49.972;8.242;2023-06-22T00:47:03;24.60;96.40
47857;DHT22;33618;49.972;8.242;2023-06-22T00:49:30;24.50;99.90
47857;DHT22;33618;49.972;8.242;2023-06-22T00:51:57;24.20;99.90
47857;DHT22;33618;49.972;8.242;2023-06-22T00:54:25;24.00;99.90
47857;DHT22;33618;49.972;8.242;2023-06-22T00:56:53;23.70;99.90
47857;DHT22;33618;49.972;8.242;2023-06-22T00:59:23;23.40;99.90
47857;DHT22;33618;49.972;8.242;2023-06-22T01:01:51;23.20;99.90
47857;DHT22;33618;49.972;8.242;2023-06-22T01:04:18;23.10;99.90
47857;DHT22;33618;49.972;8.242;2023-06-22T01:06:57;23.10;99.90
47857;DHT22;33618;49.972;8.242;2023-06-22T01:09:32;23.10;99.90
47857;DHT22;33618;49.972;8.242;2023-06-22T01:12:04;23.10;99.90
47857;DHT22;33618;49.972;8.242;2023-06-22T01:14:42;23.00;99.90
47857;DHT22;33618;49.972;8.242;2023-06-22T01:17:12;23.00;99.90
47857;DHT22;33618;49.972;8.242;2023-06-22T01:19:46;22.90;99.90
47857;DHT22;33618;49.972;8.242;2023-06-22T01:22:17;22.70;99.90
47857;DHT22;33618;49.972;8.242;2023-06-22T01:24:54;22.70;99.90
47857;DHT22;33618;49.972;8.242;2023-06-22T01:27:47;22.60;99.90
47857;DHT22;33618;49.972;8.242;2023-06-22T01:30:18;22.60;99.90
47857;DHT22;33618;49.972;8.242;2023-06-22T01:32:46;22.60;99.90
47857;DHT22;33618;49.972;8.242;2023-06-22T01:35:14;22.50;99.90
47857;DHT22;33618;49.972;8.242;2023-06-22T01:37:41;22.60;99.90
47857;DHT22;33618;49.972;8.242;2023-06-22T01:40:09;22.50;99.90
47857;DHT22;33618;49.972;8.242;2023-06-22T01:42:37;22.40;99.90
47857;DHT22;33618;49.972;8.242;2023-06-22T01:45:05;22.40;99.90
47857;DHT22;33618;49.972;8.242;2023-06-22T01:47:33;22.30;99.90
47857;DHT22;33618;49.972;8.242;2023-06-22T01:50:01;22.40;99.90
47857;DHT22;33618;49.972;8.242;2023-06-22T01:52:28;22.40;99.90
47857;DHT22;33618;49.972;8.242;2023-06-22T01:54:56;22.40;99.90
47857;DHT22;33618;49.972;8.242;2023-06-22T01:57:24;22.40;99.90
47857;DHT22;33618;49.972;8.242;2023-06-22T02:00:04;22.40;99.90
47857;DHT22;33618;49.972;8.242;2023-06-22T02:02:36;22.50;99.90
47857;DHT22;33618;49.972;8.242;2023-06-22T02:05:08;22.40;99.90
47857;DHT22;33618;49.972;8.242;2023-06-22T02:07:44;22.40;99.90
47857;DHT22;33618;49.972;8.242;2023-06-22T02:10:16;22.30;99.90
47857;DHT22;33618;49.972;8.242;2023-06-22T02:12:48;22.40;99.90
47857;DHT22;33618;49.972;8.242;2023-06-22T02:15:15;22.40;99.90
47857;DHT22;33618;49.972;8.242;2023-06-22T02:17:43;22.60;99.90
47857;DHT22;33618;49.972;8.242;2023-06-22T02:20:14;22.60;99.90
47857;DHT22;33618;49.972;8.242;2023-06-22T02:22:41;22.60;99.90
47857;DHT22;33618;49.972;8.242;2023-06-22T02:25:09;22.60;99.90
47857;DHT22;33618;49.972;8.242;2023-06-22T02:27:36;22.50;99.90
47857;DHT22;33618;49.972;8.242;2023-06-22T02:30:03;22.50;99.90
47857;DHT22;33618;49.972;8.242;2023-06-22T02:32:30;22.40;99.90
47857;DHT22;33618;49.972;8.242;2023-06-22T02:35:01;22.40;99.90
47857;DHT22;33618;49.972;8.242;2023-06-22T02:37:32;22.40;99.90
47857;DHT22;33618;49.972;8.242;2023-06-22T02:39:59;22.40;99.90
47857;DHT22;33618;49.972;8.242;2023-06-22T02:42:26;22.30;99.90
47857;DHT22;33618;49.972;8.242;2023-06-22T02:44:53;22.30;99.90
47857;DHT22;33618;49.972;8.242;2023-06-22T02:47:20;22.30;99.90
47857;DHT22;33618;49.972;8.242;2023-06-22T02:49:46;22.20;99.90
47857;DHT22;33618;49.972;8.242;2023-06-22T02:52:13;22.30;99.90
47857;DHT22;33618;49.972;8.242;2023-06-22T02:54:41;22.30;99.90
47857;DHT22;33618;49.972;8.242;2023-06-22T02:57:08;22.30;99.90
47857;DHT22;33618;49.972;8.242;2023-06-22T02:59:41;22.30;99.90
47857;DHT22;33618;49.972;8.242;2023-06-22T03:02:09;22.30;99.90
47857;DHT22;33618;49.972;8.242;2023-06-22T03:04:36;22.40;99.90
47857;DHT22;33618;49.972;8.242;2023-06-22T03:07:04;22.40;99.90
47857;DHT22;33618;49.972;8.242;2023-06-22T03:09:32;22.40;99.90
47857;DHT22;33618;49.972;8.242;2023-06-22T03:11:59;22.60;99.90
47857;DHT22;33618;49.972;8.242;2023-06-22T03:14:27;23.00;99.90
47857;DHT22;33618;49.972;8.242;2023-06-22T03:16:54;23.10;99.90
47857;DHT22;33618;49.972;8.242;2023-06-22T03:19:21;23.30;99.90
47857;DHT22;33618;49.972;8.242;2023-06-22T03:21:48;23.20;99.90
47857;DHT22;33618;49.972;8.242;2023-06-22T03:24:15;23.00;99.90
47857;DHT22;33618;49.972;8.242;2023-06-22T03:26:42;22.90;99.90
47857;DHT22;33618;49.972;8.242;2023-06-22T03:29:13;22.70;99.90
47857;DHT22;33618;49.972;8.242;2023-06-22T03:31:40;22.70;99.90
47857;DHT22;33618;49.972;8.242;2023-06-22T03:34:07;22.70;99.90
47857;DHT22;33618;49.972;8.242;2023-06-22T03:36:34;22.60;99.90
47857;DHT22;33618;49.972;8.242;2023-06-22T03:39:01;22.60;99.90
47857;DHT22;33618;49.972;8.242;2023-06-22T03:41:28;22.60;99.90
47857;DHT22;33618;49.972;8.242;2023-06-22T03:43:55;22.50;99.90
47857;DHT22;33618;49.972;8.242;2023-06-22T03:46:23;22.40;99.90
47857;DHT22;33618;49.972;8.242;2023-06-22T03:48:50;22.30;99.90
47857;DHT22;33618;49.972;8.242;2023-06-22T03:51:17;22.40;99.90
47857;DHT22;33618;49.972;8.242;2023-06-22T03:53:44;22.40;99.90
47857;DHT22;33618;49.972;8.242;2023-06-22T03:56:11;22.40;99.90
47857;DHT22;33618;49.972;8.242;2023-06-22T03:58:38;22.40;99.90
47857;DHT22;33618;49.972;8.242;2023-06-22T04:01:10;22.40;99.90
47857;DHT22;33618;49.972;8.242;2023-06-22T04:03:39;22.50;99.90
47857;DHT22;33618;49.972;8.242;2023-06-22T04:06:06;22.50;99.90
47857;DHT22;33618;49.972;8.242;2023-06-22T04:08:33;22.50;99.90
47857;DHT22;33618;49.972;8.242;2023-06-22T04:11:00;22.50;99.90
47857;DHT22;33618;49.972;8.242;2023-06-22T04:13:27;22.50;99.90
47857;DHT22;33618;49.972;8.242;2023-06-22T04:15:54;22.40;99.90
47857;DHT22;33618;49.972;8.242;2023-06-22T04:18:21;22.40;99.90
47857;DHT22;33618;49.972;8.242;2023-06-22T04:20:48;22.50;99.90
47857;DHT22;33618;49.972;8.242;2023-06-22T04:23:15;22.50;99.90
47857;DHT22;33618;49.972;8.242;2023-06-22T04:25:42;22.60;99.90
47857;DHT22;33618;49.972;8.242;2023-06-22T04:28:09;22.70;99.90
47857;DHT22;33618;49.972;8.242;2023-06-22T04:30:39;22.70;99.90
47857;DHT22;33618;49.972;8.242;2023-06-22T04:33:14;22.70;99.90
47857;DHT22;33618;49.972;8.242;2023-06-22T04:35:44;22.80;99.90
47857;DHT22;33618;49.972;8.242;2023-06-22T04:38:12;22.80;99.90
47857;DHT22;33618;49.972;8.242;2023-06-22T04:40:42;22.90;99.90
47857;DHT22;33618;49.972;8.242;2023-06-22T04:43:09;22.90;99.90
47857;DHT22;33618;49.972;8.242;2023-06-22T04:45:37;22.90;99.90
47857;DHT22;33618;49.972;8.242;2023-06-22T04:48:05;22.90;99.90
47857;DHT22;33618;49.972;8.242;2023-06-22T04:50:32;22.90;99.90
47857;DHT22;33618;49.972;8.242;2023-06-22T04:52:59;22.90;99.90
47857;DHT22;33618;49.972;8.242;2023-06-22T04:55:26;22.90;99.90
47857;DHT22;33618;49.972;8.242;2023-06-22T04:57:53;22.80;99.90
47857;DHT22;33618;49.972;8.242;2023-06-22T05:00:21;22.80;99.90
47857;DHT22;33618;49.972;8.242;2023-06-22T05:02:50;22.70;99.90
47857;DHT22;33618;49.972;8.242;2023-06-22T05:05:17;22.80;99.90
47857;DHT22;33618;49.972;8.242;2023-06-22T05:07:45;22.80;99.90
47857;DHT22;33618;49.972;8.242;2023-06-22T05:10:15;22.80;99.90
47857;DHT22;33618;49.972;8.242;2023-06-22T05:12:42;22.70;99.90
47857;DHT22;33618;49.972;8.242;2023-06-22T05:15:09;22.70;99.90
47857;DHT22;33618;49.972;8.242;2023-06-22T05:17:37;22.70;99.90
47857;DHT22;33618;49.972;8.242;2023-06-22T05:20:11;22.80;99.90
47857;DHT22;33618;49.972;8.242;2023-06-22T05:22:39;22.80;99.90
47857;DHT22;33618;49.972;8.242;2023-06-22T05:25:09;22.80;99.90
47857;DHT22;33618;49.972;8.242;2023-06-22T05:27:36;22.90;99.90
47857;DHT22;33618;49.972;8.242;2023-06-22T05:30:07;22.90;99.90
47857;DHT22;33618;49.972;8.242;2023-06-22T05:32:35;23.00;99.90
47857;DHT22;33618;49.972;8.242;2023-06-22T05:35:20;23.00;99.90
47857;DHT22;33618;49.972;8.242;2023-06-22T05:37:47;23.00;99.90
47857;DHT22;33618;49.972;8.242;2023-06-22T05:40:15;23.10;99.90
47857;DHT22;33618;49.972;8.242;2023-06-22T05:42:42;23.20;99.90
47857;DHT22;33618;49.972;8.242;2023-06-22T05:45:09;23.40;99.90
47857;DHT22;33618;49.972;8.242;2023-06-22T05:47:36;23.50;99.90
47857;DHT22;33618;49.972;8.242;2023-06-22T05:50:04;23.60;99.90
47857;DHT22;33618;49.972;8.242;2023-06-22T05:52:33;23.70;99.90
47857;DHT22;33618;49.972;8.242;2023-06-22T05:55:02;23.70;99.90
47857;DHT22;33618;49.972;8.242;2023-06-22T05:57:29;23.80;99.90
47857;DHT22;33618;49.972;8.242;2023-06-22T05:59:56;23.90;99.90
47857;DHT22;33618;49.972;8.242;2023-06-22T06:02:23;23.90;99.90
47857;DHT22;33618;49.972;8.242;2023-06-22T06:04:50;24.00;99.90
47857;DHT22;33618;49.972;8.242;2023-06-22T06:07:19;24.00;99.90
47857;DHT22;33618;49.972;8.242;2023-06-22T06:09:46;24.10;99.90
47857;DHT22;33618;49.972;8.242;2023-06-22T06:12:14;24.30;99.90
47857;DHT22;33618;49.972;8.242;2023-06-22T06:14:41;24.40;99.90
47857;DHT22;33618;49.972;8.242;2023-06-22T06:17:08;24.50;99.90
47857;DHT22;33618;49.972;8.242;2023-06-22T06:19:35;24.60;99.90
47857;DHT22;33618;49.972;8.242;2023-06-22T06:22:03;24.60;99.90
47857;DHT22;33618;49.972;8.242;2023-06-22T06:24:30;24.60;99.90
47857;DHT22;33618;49.972;8.242;2023-06-22T06:27:05;24.70;99.90
47857;DHT22;33618;49.972;8.242;2023-06-22T06:29:46;24.70;99.90
47857;DHT22;33618;49.972;8.242;2023-06-22T06:32:16;24.80;99.90
47857;DHT22;33618;49.972;8.242;2023-06-22T06:59:31;25.00;99.90
47857;DHT22;33618;49.972;8.242;2023-06-22T07:02:00;25.10;99.90
47857;DHT22;33618;49.972;8.242;2023-06-22T07:04:27;25.10;99.90
47857;DHT22;33618;49.972;8.242;2023-06-22T07:06:54;25.10;99.90
47857;DHT22;33618;49.972;8.242;2023-06-22T07:09:21;25.10;99.90
47857;DHT22;33618;49.972;8.242;2023-06-22T07:11:47;25.20;99.90
47857;DHT22;33618;49.972;8.242;2023-06-22T07:14:14;25.30;99.90
47857;DHT22;33618;49.972;8.242;2023-06-22T07:16:41;25.20;99.90
47857;DHT22;33618;49.972;8.242;2023-06-22T07:19:11;25.30;99.90
47857;DHT22;33618;49.972;8.242;2023-06-22T07:21:38;25.40;99.90
47857;DHT22;33618;49.972;8.242;2023-06-22T07:24:06;25.50;99.90
47857;DHT22;33618;49.972;8.242;2023-06-22T07:26:34;25.50;99.90
47857;DHT22;33618;49.972;8.242;2023-06-22T07:29:01;25.50;99.90
47857;DHT22;33618;49.972;8.242;2023-06-22T07:31:28;25.70;99.90
47857;DHT22;33618;49.972;8.242;2023-06-22T07:33:55;25.70;99.90
47857;DHT22;33618;49.972;8.242;2023-06-22T07:36:22;25.80;99.90
47857;DHT22;33618;49.972;8.242;2023-06-22T07:38:48;25.80;99.90
47857;DHT22;33618;49.972;8.242;2023-06-22T07:41:15;25.90;99.90
47857;DHT22;33618;49.972;8.242;2023-06-22T07:43:42;26.00;99.90
47857;DHT22;33618;49.972;8.242;2023-06-22T07:46:09;26.00;99.90
47857;DHT22;33618;49.972;8.242;2023-06-22T07:48:37;26.20;99.90
47857;DHT22;33618;49.972;8.242;2023-06-22T07:51:05;26.20;99.90
47857;DHT22;33618;49.972;8.242;2023-06-22T07:53:32;26.20;99.40
47857;DHT22;33618;49.972;8.242;2023-06-22T07:55:59;26.30;99.00
47857;DHT22;33618;49.972;8.242;2023-06-22T07:58:26;26.40;98.70
47857;DHT22;33618;49.972;8.242;2023-06-22T08:00:53;26.50;98.30
47857;DHT22;33618;49.972;8.242;2023-06-22T08:03:19;26.60;97.40
47857;DHT22;33618;49.972;8.242;2023-06-22T08:05:47;26.70;97.10
47857;DHT22;33618;49.972;8.242;2023-06-22T08:08:14;26.70;97.00
47857;DHT22;33618;49.972;8.242;2023-06-22T08:10:41;26.90;96.60
47857;DHT22;33618;49.972;8.242;2023-06-22T08:13:10;26.80;96.50
47857;DHT22;33618;49.972;8.242;2023-06-22T08:15:37;26.90;96.40
47857;DHT22;33618;49.972;8.242;2023-06-22T08:18:03;27.00;96.00
47857;DHT22;33618;49.972;8.242;2023-06-22T08:20:30;27.10;95.80
47857;DHT22;33618;49.972;8.242;2023-06-22T08:22:58;27.20;95.30
47857;DHT22;33618;49.972;8.242;2023-06-22T08:25:33;27.30;95.40
47857;DHT22;33618;49.972;8.242;2023-06-22T08:28:01;27.40;95.30
47857;DHT22;33618;49.972;8.242;2023-06-22T08:30:29;27.50;94.40
47857;DHT22;33618;49.972;8.242;2023-06-22T08:32:56;27.50;94.30
47857;DHT22;33618;49.972;8.242;2023-06-22T08:35:23;27.40;94.00
47857;DHT22;33618;49.972;8.242;2023-06-22T08:37:50;27.60;93.90
47857;DHT22;33618;49.972;8.242;2023-06-22T08:40:21;27.70;93.80
47857;DHT22;33618;49.972;8.242;2023-06-22T08:42:48;27.80;93.60
47857;DHT22;33618;49.972;8.242;2023-06-22T08:45:16;27.90;92.90
47857;DHT22;33618;49.972;8.242;2023-06-22T08:47:43;28.00;92.60
47857;DHT22;33618;49.972;8.242;2023-06-22T08:50:10;28.10;92.60
47857;DHT22;33618;49.972;8.242;2023-06-22T08:52:39;28.20;91.90
47857;DHT22;33618;49.972;8.242;2023-06-22T08:55:09;28.40;91.90
47857;DHT22;33618;49.972;8.242;2023-06-22T08:57:36;28.40;91.50
47857;DHT22;33618;49.972;8.242;2023-06-22T09:00:07;28.50;91.50
47857;DHT22;33618;49.972;8.242;2023-06-22T09:02:44;28.70;90.90
47857;DHT22;33618;49.972;8.242;2023-06-22T09:05:11;28.80;90.50
47857;DHT22;33618;49.972;8.242;2023-06-22T09:07:38;28.90;90.50
47857;DHT22;33618;49.972;8.242;2023-06-22T09:10:06;29.10;89.80
47857;DHT22;33618;49.972;8.242;2023-06-22T09:12:34;29.30;89.60
47857;DHT22;33618;49.972;8.242;2023-06-22T09:15:01;29.40;88.70
47857;DHT22;33618;49.972;8.242;2023-06-22T09:17:28;29.60;87.90
47857;DHT22;33618;49.972;8.242;2023-06-22T09:19:55;29.80;87.10
47857;DHT22;33618;49.972;8.242;2023-06-22T09:26:28;29.90;85.90
47857;DHT22;33618;49.972;8.242;2023-06-22T09:28:55;30.20;85.20
47857;DHT22;33618;49.972;8.242;2023-06-22T09:31:22;30.30;84.50
47857;DHT22;33618;49.972;8.242;2023-06-22T09:33:53;30.50;84.30
47857;DHT22;33618;49.972;8.242;2023-06-22T09:36:21;30.90;83.10
47857;DHT22;33618;49.972;8.242;2023-06-22T09:38:49;31.10;82.40
47857;DHT22;33618;49.972;8.242;2023-06-22T09:41:40;31.10;81.70
47857;DHT22;33618;49.972;8.242;2023-06-22T09:44:51;31.00;81.40
47857;DHT22;33618;49.972;8.242;2023-06-22T09:48:02;30.90;81.30
47857;DHT22;33618;49.972;8.242;2023-06-22T09:51:13;31.10;81.60
47857;DHT22;33618;49.972;8.242;2023-06-22T09:54:24;31.30;80.80
47857;DHT22;33618;49.972;8.242;2023-06-22T09:57:35;31.60;80.00
47857;DHT22;33618;49.972;8.242;2023-06-22T10:00:46;31.60;79.50
47857;DHT22;33618;49.972;8.242;2023-06-22T10:03:57;31.70;79.00
47857;DHT22;33618;49.972;8.242;2023-06-22T10:07:09;32.20;78.60
47857;DHT22;33618;49.972;8.242;2023-06-22T10:10:20;32.70;76.50
47857;DHT22;33618;49.972;8.242;2023-06-22T10:13:31;32.70;76.40
47857;DHT22;33618;49.972;8.242;2023-06-22T10:16:42;32.70;75.80
47857;DHT22;33618;49.972;8.242;2023-06-22T10:19:53;33.00;75.40
47857;DHT22;33618;49.972;8.242;2023-06-22T10:23:04;33.20;74.30
47857;DHT22;33618;49.972;8.242;2023-06-22T10:26:15;33.90;73.60
47857;DHT22;33618;49.972;8.242;2023-06-22T17:34:21;29.20;97.10
47857;DHT22;33618;49.972;8.242;2023-06-22T17:36:52;29.30;97.90
47857;DHT22;33618;49.972;8.242;2023-06-22T17:39:22;29.40;98.10
47857;DHT22;33618;49.972;8.242;2023-06-22T17:41:50;29.50;96.00
47857;DHT22;33618;49.972;8.242;2023-06-22T17:44:24;29.50;95.90
47857;DHT22;33618;49.972;8.242;2023-06-22T17:46:56;29.60;96.00
47857;DHT22;33618;49.972;8.242;2023-06-22T17:49:30;29.50;96.40
47857;DHT22;33618;49.972;8.242;2023-06-22T17:52:00;29.50;91.30
47857;DHT22;33618;49.972;8.242;2023-06-22T17:54:31;29.50;85.90
47857;DHT22;33618;49.972;8.242;2023-06-22T17:57:17;29.50;83.70
47857;DHT22;33618;49.972;8.242;2023-06-22T17:59:51;29.40;80.90
47857;DHT22;33618;49.972;8.242;2023-06-22T18:02:24;29.30;80.20
47857;DHT22;33618;49.972;8.242;2023-06-22T18:05:02;29.10;81.20
47857;DHT22;33618;49.972;8.242;2023-06-22T18:07:33;28.80;82.80
47857;DHT22;33618;49.972;8.242;2023-06-22T18:10:01;28.60;83.20
47857;DHT22;33618;49.972;8.242;2023-06-22T18:12:29;28.30;83.20
47857;DHT22;33618;49.972;8.242;2023-06-22T18:14:56;28.10;83.90
47857;DHT22;33618;49.972;8.242;2023-06-22T18:17:24;28.00;84.10
47857;DHT22;33618;49.972;8.242;2023-06-22T18:19:54;27.70;82.20
47857;DHT22;33618;49.972;8.242;2023-06-22T18:22:22;27.60;83.70
47857;DHT22;33618;49.972;8.242;2023-06-22T18:24:49;27.60;85.00
47857;DHT22;33618;49.972;8.242;2023-06-22T18:27:16;27.50;84.40
47857;DHT22;33618;49.972;8.242;2023-06-22T18:29:43;27.30;85.30
47857;DHT22;33618;49.972;8.242;2023-06-22T18:32:11;27.20;85.20
47857;DHT22;33618;49.972;8.242;2023-06-22T18:34:42;27.20;85.30
47857;DHT22;33618;49.972;8.242;2023-06-22T18:37:13;27.10;86.10
47857;DHT22;33618;49.972;8.242;2023-06-22T18:39:44;27.10;86.10
47857;DHT22;33618;49.972;8.242;2023-06-22T18:42:14;27.00;85.40
47857;DHT22;33618;49.972;8.242;2023-06-22T18:44:42;27.00;86.50
47857;DHT22;33618;49.972;8.242;2023-06-22T18:47:10;26.90;86.90
47857;DHT22;33618;49.972;8.242;2023-06-22T18:54:48;26.80;87.20
47857;DHT22;33618;49.972;8.242;2023-06-22T18:57:16;26.70;86.90
47857;DHT22;33618;49.972;8.242;2023-06-22T19:13:28;26.40;89.30
47857;DHT22;33618;49.972;8.242;2023-06-22T19:16:02;26.30;89.80
47857;DHT22;33618;49.972;8.242;2023-06-22T19:18:37;26.30;89.80
47857;DHT22;33618;49.972;8.242;2023-06-22T19:21:31;26.10;89.90
47857;DHT22;33618;49.972;8.242;2023-06-22T19:23:58;26.00;89.70
47857;DHT22;33618;49.972;8.242;2023-06-22T19:26:25;25.80;88.80
47857;DHT22;33618;49.972;8.242;2023-06-22T19:28:56;25.70;89.10
47857;DHT22;33618;49.972;8.242;2023-06-22T19:31:24;25.70;89.10
47857;DHT22;33618;49.972;8.242;2023-06-22T20:15:29;23.60;97.20
47857;DHT22;33618;49.972;8.242;2023-06-22T20:18:01;23.30;98.90
47857;DHT22;33618;49.972;8.242;2023-06-22T20:20:30;23.30;99.80
47857;DHT22;33618;49.972;8.242;2023-06-22T20:23:01;23.20;99.70
47857;DHT22;33618;49.972;8.242;2023-06-22T20:25:34;23.20;99.90
47857;DHT22;33618;49.972;8.242;2023-06-22T20:28:11;23.10;99.90
47857;DHT22;33618;49.972;8.242;2023-06-22T20:30:40;23.10;99.90
47857;DHT22;33618;49.972;8.242;2023-06-22T20:33:15;23.10;99.90
47857;DHT22;33618;49.972;8.242;2023-06-22T20:35:42;23.00;99.90
47857;DHT22;33618;49.972;8.242;2023-06-22T20:38:10;23.00;99.90
47857;DHT22;33618;49.972;8.242;2023-06-22T20:40:40;23.00;99.90
47857;DHT22;33618;49.972;8.242;2023-06-22T20:43:07;22.90;99.90
47857;DHT22;33618;49.972;8.242;2023-06-22T20:45:35;22.90;99.90
47857;DHT22;33618;49.972;8.242;2023-06-22T20:48:04;22.80;99.90
47857;DHT22;33618;49.972;8.242;2023-06-22T20:50:31;22.80;99.90
47857;DHT22;33618;49.972;8.242;2023-06-22T20:53:23;22.70;99.90
47857;DHT22;33618;49.972;8.242;2023-06-22T21:30:39;22.30;99.90
47857;DHT22;33618;49.972;8.242;2023-06-22T21:33:06;22.30;99.90
47857;DHT22;33618;49.972;8.242;2023-06-22T21:35:33;22.40;99.90
47857;DHT22;33618;49.972;8.242;2023-06-22T21:38:01;22.30;99.90
47857;DHT22;33618;49.972;8.242;2023-06-22T22:08:56;21.60;99.90
47857;DHT22;33618;49.972;8.242;2023-06-22T22:11:23;21.60;99.90
47857;DHT22;33618;49.972;8.242;2023-06-22T22:13:50;21.50;99.90
47857;DHT22;33618;49.972;8.242;2023-06-22T22:16:19;21.50;99.90
47857;DHT22;33618;49.972;8.242;2023-06-22T22:18:46;21.40;99.90
47857;DHT22;33618;49.972;8.242;2023-06-22T22:21:14;21.30;99.90
47857;DHT22;33618;49.972;8.242;2023-06-22T22:23:41;21.10;99.90
47857;DHT22;33618;49.972;8.242;2023-06-22T22:26:08;20.90;99.90
47857;DHT22;33618;49.972;8.242;2023-06-22T22:28:35;20.80;99.90
47857;DHT22;33618;49.972;8.242;2023-06-22T22:31:02;20.60;99.90
47857;DHT22;33618;49.972;8.242;2023-06-22T22:33:42;20.30;99.90
47857;DHT22;33618;49.972;8.242;2023-06-22T22:36:09;20.00;99.90
47857;DHT22;33618;49.972;8.242;2023-06-22T22:38:37;19.80;99.90
47857;DHT22;33618;49.972;8.242;2023-06-22T22:41:08;19.70;99.90
47857;DHT22;33618;49.972;8.242;2023-06-22T22:43:38;19.50;99.90
47857;DHT22;33618;49.972;8.242;2023-06-22T22:46:05;19.40;99.90
47857;DHT22;33618;49.972;8.242;2023-06-22T22:48:32;19.40;99.90
47857;DHT22;33618;49.972;8.242;2023-06-22T22:50:59;19.30;99.90
47857;DHT22;33618;49.972;8.242;2023-06-22T22:53:26;19.10;99.90
47857;DHT22;33618;49.972;8.242;2023-06-22T22:55:53;18.90;99.90
47857;DHT22;33618;49.972;8.242;2023-06-22T22:58:20;18.90;99.90
47857;DHT22;33618;49.972;8.242;2023-06-22T23:00:47;18.90;99.90
47857;DHT22;33618;49.972;8.242;2023-06-22T23:03:14;18.90;99.90
47857;DHT22;33618;49.972;8.242;2023-06-22T23:05:42;18.80;99.90
47857;DHT22;33618;49.972;8.242;2023-06-22T23:08:09;18.70;99.90
47857;DHT22;33618;49.972;8.242;2023-06-22T23:10:36;18.70;99.90
47857;DHT22;33618;49.972;8.242;2023-06-22T23:13:03;18.60;99.90
47857;DHT22;33618;49.972;8.242;2023-06-22T23:15:29;18.60;99.90
47857;DHT22;33618;49.972;8.242;2023-06-22T23:17:57;18.60;99.90
47857;DHT22;33618;49.972;8.242;2023-06-22T23:20:24;18.70;99.90
47857;DHT22;33618;49.972;8.242;2023-06-22T23:22:55;18.70;99.90
47857;DHT22;33618;49.972;8.242;2023-06-22T23:25:25;18.70;99.90
47857;DHT22;33618;49.972;8.242;2023-06-22T23:27:52;18.80;99.90
47857;DHT22;33618;49.972;8.242;2023-06-22T23:30:19;18.80;99.90
47857;DHT22;33618;49.972;8.242;2023-06-22T23:32:46;18.80;99.90
47857;DHT22;33618;49.972;8.242;2023-06-22T23:35:14;18.80;99.90
47857;DHT22;33618;49.972;8.242;2023-06-22T23:37:41;18.80;99.90
47857;DHT22;33618;49.972;8.242;2023-06-22T23:40:09;18.80;99.90
47857;DHT22;33618;49.972;8.242;2023-06-22T23:42:47;18.80;99.90
47857;DHT22;33618;49.972;8.242;2023-06-22T23:45:15;18.80;99.90
47857;DHT22;33618;49.972;8.242;2023-06-22T23:47:45;18.80;99.90
47857;DHT22;33618;49.972;8.242;2023-06-22T23:50:13;18.80;99.90
47857;DHT22;33618;49.972;8.242;2023-06-22T23:52:42;18.90;99.90
47857;DHT22;33618;49.972;8.242;2023-06-22T23:55:09;18.90;99.90
47857;DHT22;33618;49.972;8.242;2023-06-22T23:57:38;18.90;99.90
